Terminal Aerodrome Forecast
Issued by NWS

Home | Current Version | Previous Version | Text Only | Print | Product List | Glossary On
Versions: 1 2 3 4 5 6 7 8 9 10 11 12 13 14 15 16 17
000
FTUS41 KBTV 251700
TAFSLK
TAF
KSLK 251726Z 2518/2618 24010G17KT P6SM BKN045
     FM260000 23003KT P6SM SCT200
      TEMPO 2607/2611 3SM BR SCT002
     FM261300 23010KT P6SM SCT045 BKN120=

USA.gov is the U.S. government's official web portal to all federal, state and local government web resources and services.